Time;durP1;ratioP1;P1;durP2;ratioP2;P2;SDS_P1;SDS_P2;PMS_P1;PMS_P2;Temp;Humidity;BMP_temperature;BMP_pressure;BME280_temperature;BME280_humidity;BME280_pressure;Samples;Min_cycle;Max_cycle;Signal;HPM_P1;HPM_P2
2022/01/18 00:00:45;;;;;;;;;;;3.50;99.90;;;;;;5018121;28;19905;-86
2022/01/18 00:03:11;;;;;;;;;;;3.50;99.90;;;;;;5019341;28;19940;-85
2022/01/18 00:05:37;;;;;;;;;;;3.50;99.90;;;;;;5019836;28;19909;-85
2022/01/18 00:08:03;;;;;;;;;;;3.50;99.90;;;;;;5018859;28;19905;-85
2022/01/18 00:10:30;;;;;;;;;;;3.40;99.90;;;;;;5018434;28;19905;-86
2022/01/18 00:15:38;;;;;;;;;;;3.40;99.90;;;;;;5035832;28;19963;-86
2022/01/18 00:20:52;;;;;;;;;;;3.40;99.90;;;;;;5035760;28;19940;-85
2022/01/18 00:23:19;;;;;;;;;;;3.40;99.90;;;;;;5035469;28;19905;-86
2022/01/18 00:25:48;;;;;;;;;;;3.40;99.90;;;;;;5017640;28;19947;-86
2022/01/18 00:28:14;;;;;;;;;;;3.40;99.90;;;;;;5017718;28;19912;-85
2022/01/18 00:36:23;;;;;;;;;;;3.30;99.90;;;;;;5004324;28;20142;-86
2022/01/18 00:38:48;;;;;;;;;;;3.20;99.90;;;;;;5017852;28;20361;-85
2022/01/18 00:41:15;;;;;;;;;;;3.20;99.90;;;;;;5017806;28;19912;-86
2022/01/18 00:43:41;;;;;;;;;;;3.20;99.90;;;;;;5017814;28;20261;-86
2022/01/18 00:46:07;;;;;;;;;;;3.20;99.90;;;;;;5017338;28;20034;-85
2022/01/18 00:48:35;;;;;;;;;;;3.30;99.90;;;;;;5017290;28;20443;-85
2022/01/18 00:51:02;;;;;;;;;;;3.30;99.90;;;;;;5016860;28;19909;-85
2022/01/18 00:53:31;;;;;;;;;;;3.30;99.90;;;;;;5017053;28;20363;-86
2022/01/18 00:58:38;;;;;;;;;;;3.40;99.90;;;;;;5034889;28;19905;-85
2022/01/18 01:01:03;;;;;;;;;;;3.50;99.90;;;;;;5017492;28;19905;-86
2022/01/18 01:03:29;;;;;;;;;;;3.50;99.90;;;;;;5013936;28;19940;-86
2022/01/18 01:05:55;;;;;;;;;;;3.50;99.90;;;;;;5013976;28;19913;-86
2022/01/18 01:08:21;;;;;;;;;;;3.40;99.90;;;;;;5014480;28;19909;-85
2022/01/18 01:10:49;;;;;;;;;;;3.50;99.90;;;;;;5014062;28;19948;-86
2022/01/18 01:13:15;;;;;;;;;;;3.50;99.90;;;;;;5013806;28;20321;-85
2022/01/18 01:16:02;;;;;;;;;;;3.50;99.90;;;;;;5013984;28;19917;-86
2022/01/18 01:34:46;;;;;;;;;;;3.40;99.90;;;;;;5019795;28;19909;-86
2022/01/18 01:44:46;;;;;;;;;;;3.30;99.90;;;;;;5018817;28;19943;-86
2022/01/18 01:47:17;;;;;;;;;;;3.30;99.90;;;;;;5016910;28;19905;-86
2022/01/18 01:49:43;;;;;;;;;;;3.30;99.90;;;;;;5019110;28;20036;-85
2022/01/18 01:52:09;;;;;;;;;;;3.30;99.90;;;;;;5018710;28;19967;-86
2022/01/18 01:54:35;;;;;;;;;;;3.40;99.90;;;;;;5018156;28;19955;-86
2022/01/18 01:57:01;;;;;;;;;;;3.40;99.90;;;;;;5016958;28;20004;-85
2022/01/18 01:59:26;;;;;;;;;;;3.40;99.90;;;;;;5017695;28;19912;-86
2022/01/18 02:01:52;;;;;;;;;;;3.40;99.90;;;;;;5018546;28;20323;-86
2022/01/18 02:04:17;;;;;;;;;;;3.40;99.90;;;;;;5020530;28;19913;-86
2022/01/18 02:06:43;;;;;;;;;;;3.40;99.90;;;;;;5020368;28;19996;-86
2022/01/18 02:09:09;;;;;;;;;;;3.40;99.90;;;;;;5020079;28;20023;-86
2022/01/18 02:11:34;;;;;;;;;;;3.40;99.90;;;;;;5020068;28;19905;-85
2022/01/18 02:14:01;;;;;;;;;;;3.40;99.90;;;;;;5021803;28;20004;-85
2022/01/18 02:21:59;;;;;;;;;;;3.50;99.90;;;;;;5038456;28;19927;-85
2022/01/18 02:24:24;;;;;;;;;;;3.40;99.90;;;;;;5020230;28;19905;-86
2022/01/18 02:26:50;;;;;;;;;;;3.40;99.90;;;;;;5019324;28;19949;-86
2022/01/18 02:29:16;;;;;;;;;;;3.50;99.90;;;;;;5019105;28;19944;-86
2022/01/18 02:31:42;;;;;;;;;;;3.50;99.90;;;;;;5019503;28;19959;-86
2022/01/18 02:34:09;;;;;;;;;;;3.50;99.90;;;;;;5019233;28;19909;-85
2022/01/18 02:36:35;;;;;;;;;;;3.40;99.90;;;;;;5019166;28;19908;-86
2022/01/18 02:39:00;;;;;;;;;;;3.40;99.90;;;;;;5037033;28;19969;-85
2022/01/18 02:41:30;;;;;;;;;;;3.40;99.90;;;;;;5037792;28;20345;-86
2022/01/18 02:44:00;;;;;;;;;;;3.30;99.90;;;;;;5019079;28;19928;-86
2022/01/18 02:46:27;;;;;;;;;;;3.30;99.90;;;;;;5018998;28;19912;-86
2022/01/18 02:48:53;;;;;;;;;;;3.30;99.90;;;;;;5019727;28;19905;-86
2022/01/18 02:51:19;;;;;;;;;;;3.30;99.90;;;;;;5019426;28;19951;-85
2022/01/18 02:54:00;;;;;;;;;;;3.30;99.90;;;;;;5019310;28;19908;-86
2022/01/18 02:56:37;;;;;;;;;;;3.30;99.90;;;;;;5019323;28;19909;-86
2022/01/18 02:59:24;;;;;;;;;;;3.40;99.90;;;;;;5019443;28;20282;-86
2022/01/18 03:04:38;;;;;;;;;;;3.40;99.90;;;;;;5036850;28;20005;-86
2022/01/18 03:07:03;;;;;;;;;;;3.50;99.90;;;;;;5036470;28;20008;-86
2022/01/18 03:09:29;;;;;;;;;;;3.60;99.90;;;;;;5018731;28;19909;-86
2022/01/18 03:11:55;;;;;;;;;;;3.60;99.90;;;;;;5018442;28;19936;-85
2022/01/18 03:14:21;;;;;;;;;;;3.60;99.90;;;;;;5018644;28;19905;-86
2022/01/18 03:16:46;;;;;;;;;;;3.60;99.90;;;;;;5019301;28;19915;-86
2022/01/18 03:19:12;;;;;;;;;;;3.60;99.90;;;;;;5019082;28;19952;-86
2022/01/18 03:21:37;;;;;;;;;;;3.70;99.90;;;;;;5019322;28;19912;-86
2022/01/18 03:29:28;;;;;;;;;;;3.50;99.90;;;;;;5037166;28;20391;-86
2022/01/18 03:31:54;;;;;;;;;;;3.40;99.90;;;;;;5018927;28;19909;-86
2022/01/18 03:34:20;;;;;;;;;;;3.50;99.90;;;;;;5018081;28;19955;-85
2022/01/18 03:36:46;;;;;;;;;;;3.40;99.90;;;;;;5018600;28;19909;-86
2022/01/18 03:39:12;;;;;;;;;;;3.50;99.90;;;;;;5018990;28;19947;-85
2022/01/18 03:41:37;;;;;;;;;;;3.50;99.90;;;;;;5035638;28;20379;-86
2022/01/18 03:44:03;;;;;;;;;;;3.50;99.90;;;;;;5019133;28;19904;-86
2022/01/18 03:46:29;;;;;;;;;;;3.50;99.90;;;;;;5018047;28;20238;-86
2022/01/18 03:48:54;;;;;;;;;;;3.50;99.90;;;;;;5018624;28;19987;-86
2022/01/18 03:51:20;;;;;;;;;;;3.50;99.90;;;;;;5018176;28;19913;-86
2022/01/18 03:53:47;;;;;;;;;;;3.50;99.90;;;;;;5018131;28;20337;-86
2022/01/18 03:56:12;;;;;;;;;;;3.60;99.90;;;;;;5018463;28;19909;-86
2022/01/18 03:58:38;;;;;;;;;;;3.70;99.90;;;;;;5018050;28;19955;-86
2022/01/18 04:01:04;;;;;;;;;;;3.60;99.90;;;;;;5017742;28;19905;-86
2022/01/18 04:03:29;;;;;;;;;;;3.60;99.90;;;;;;5017712;28;19957;-86
2022/01/18 04:05:56;;;;;;;;;;;3.60;99.90;;;;;;5017169;28;19962;-86
2022/01/18 04:08:23;;;;;;;;;;;3.60;99.90;;;;;;5017939;28;19912;-86
2022/01/18 04:10:48;;;;;;;;;;;3.60;99.90;;;;;;5018435;28;20384;-86
2022/01/18 04:13:14;;;;;;;;;;;3.60;99.90;;;;;;5018396;28;19905;-86
2022/01/18 04:15:39;;;;;;;;;;;3.60;99.90;;;;;;5017634;28;19909;-86
2022/01/18 04:18:55;;;;;;;;;;;3.60;99.90;;;;;;5035897;28;20273;-86
2022/01/18 04:28:52;;;;;;;;;;;3.40;99.90;;;;;;5035702;28;19909;-86
2022/01/18 04:31:17;;;;;;;;;;;3.40;99.90;;;;;;5018021;28;19893;-86
2022/01/18 04:33:43;;;;;;;;;;;3.40;99.90;;;;;;5018074;28;19905;-86
2022/01/18 04:36:09;;;;;;;;;;;3.30;99.90;;;;;;5017052;28;19916;-86
2022/01/18 04:38:35;;;;;;;;;;;3.30;99.90;;;;;;5017553;28;19909;-87
2022/01/18 04:41:06;;;;;;;;;;;3.40;99.90;;;;;;5017234;28;19909;-86
2022/01/18 04:49:01;;;;;;;;;;;3.40;99.90;;;;;;5035747;28;20422;-86
2022/01/18 04:51:26;;;;;;;;;;;3.40;99.90;;;;;;5017781;28;19905;-86
2022/01/18 04:53:55;;;;;;;;;;;3.40;99.90;;;;;;5017570;28;20280;-86
2022/01/18 04:56:29;;;;;;;;;;;3.40;99.90;;;;;;5035324;28;20314;-86
2022/01/18 04:58:56;;;;;;;;;;;3.40;99.90;;;;;;5021507;28;19925;-86
2022/01/18 05:01:21;;;;;;;;;;;3.40;99.90;;;;;;5021671;28;20369;-86
2022/01/18 05:03:47;;;;;;;;;;;3.30;99.90;;;;;;5020992;28;20003;-86
2022/01/18 05:06:16;;;;;;;;;;;3.40;99.90;;;;;;5021466;28;20280;-86
2022/01/18 05:08:42;;;;;;;;;;;3.40;99.90;;;;;;5021091;28;20368;-86
2022/01/18 05:11:11;;;;;;;;;;;3.30;99.90;;;;;;5021707;28;19908;-86
2022/01/18 05:14:04;;;;;;;;;;;3.40;99.90;;;;;;5039442;28;19905;-86
2022/01/18 05:19:23;;;;;;;;;;;3.40;99.90;;;;;;5039663;28;19912;-86
2022/01/18 05:24:32;;;;;;;;;;;3.40;99.90;;;;;;5039726;28;19905;-86
2022/01/18 05:26:59;;;;;;;;;;;3.40;99.90;;;;;;5021682;28;19905;-86
2022/01/18 05:29:25;;;;;;;;;;;3.50;99.90;;;;;;5021516;28;19905;-86
2022/01/18 05:31:51;;;;;;;;;;;3.50;99.90;;;;;;5020725;28;20285;-86
2022/01/18 05:34:17;;;;;;;;;;;3.50;99.90;;;;;;5021169;28;19912;-86
2022/01/18 05:36:43;;;;;;;;;;;3.60;99.90;;;;;;5020529;28;19955;-86
2022/01/18 05:39:09;;;;;;;;;;;3.60;99.90;;;;;;5038541;28;19912;-86
2022/01/18 05:41:36;;;;;;;;;;;3.60;99.90;;;;;;5021167;28;19905;-86
2022/01/18 05:44:01;;;;;;;;;;;3.50;99.90;;;;;;5038706;28;19905;-86
2022/01/18 05:46:27;;;;;;;;;;;3.40;99.90;;;;;;5020826;28;19905;-86
2022/01/18 05:48:52;;;;;;;;;;;3.30;99.90;;;;;;5038515;28;19931;-86
2022/01/18 05:51:18;;;;;;;;;;;3.30;99.90;;;;;;5020655;28;20262;-86
2022/01/18 05:53:44;;;;;;;;;;;3.30;99.90;;;;;;5020399;28;19912;-86
2022/01/18 05:56:11;;;;;;;;;;;3.20;99.90;;;;;;5020540;28;19909;-86
2022/01/18 05:58:44;;;;;;;;;;;3.20;99.90;;;;;;5038617;28;19909;-86
2022/01/18 06:01:11;;;;;;;;;;;3.20;99.90;;;;;;5020720;28;19955;-86
2022/01/18 06:03:51;;;;;;;;;;;3.20;99.90;;;;;;5020108;28;19917;-86
2022/01/18 06:09:01;;;;;;;;;;;3.20;99.90;;;;;;5038541;28;20280;-86
2022/01/18 06:11:26;;;;;;;;;;;3.20;99.90;;;;;;5020774;28;19932;-86
2022/01/18 06:13:52;;;;;;;;;;;3.20;99.90;;;;;;5020684;28;19935;-86
2022/01/18 06:16:17;;;;;;;;;;;3.20;99.90;;;;;;5037584;28;20272;-85
2022/01/18 06:18:43;;;;;;;;;;;3.20;99.90;;;;;;5019770;28;19912;-86
2022/01/18 06:21:08;;;;;;;;;;;3.20;99.90;;;;;;5020348;28;19912;-86
2022/01/18 06:23:34;;;;;;;;;;;3.20;99.90;;;;;;5020520;28;19963;-86
2022/01/18 06:26:02;;;;;;;;;;;3.20;99.90;;;;;;5020405;28;19999;-86
2022/01/18 06:28:28;;;;;;;;;;;3.20;99.90;;;;;;5019695;28;20008;-85
2022/01/18 06:30:54;;;;;;;;;;;3.20;99.90;;;;;;5019349;28;20328;-86
2022/01/18 06:33:19;;;;;;;;;;;3.20;99.90;;;;;;5021456;28;20014;-86
2022/01/18 06:35:45;;;;;;;;;;;3.10;99.90;;;;;;5022478;28;19915;-85
2022/01/18 06:38:12;;;;;;;;;;;3.10;99.90;;;;;;5022983;28;20004;-86
2022/01/18 06:40:38;;;;;;;;;;;3.10;99.90;;;;;;5020486;28;19905;-86
2022/01/18 06:43:04;;;;;;;;;;;3.10;99.90;;;;;;5019845;28;19905;-86
2022/01/18 06:45:30;;;;;;;;;;;3.10;99.90;;;;;;5037429;28;19936;-86
2022/01/18 06:47:56;;;;;;;;;;;3.20;99.90;;;;;;5019528;28;19912;-86
2022/01/18 06:50:21;;;;;;;;;;;3.20;99.90;;;;;;5018849;28;19987;-86
2022/01/18 06:52:47;;;;;;;;;;;3.20;99.90;;;;;;5037094;28;20004;-86
2022/01/18 06:55:13;;;;;;;;;;;3.20;99.90;;;;;;5019322;28;19912;-86
2022/01/18 06:57:38;;;;;;;;;;;3.20;99.90;;;;;;5019440;28;20015;-86
2022/01/18 07:00:05;;;;;;;;;;;3.20;99.90;;;;;;5019170;28;19955;-86
2022/01/18 07:02:31;;;;;;;;;;;3.20;99.90;;;;;;5019238;28;19956;-86
2022/01/18 07:04:56;;;;;;;;;;;3.10;99.90;;;;;;5019197;28;20357;-86
2022/01/18 07:07:23;;;;;;;;;;;3.10;99.90;;;;;;5018642;28;20353;-86
2022/01/18 07:09:49;;;;;;;;;;;3.00;99.90;;;;;;5019951;28;19905;-86
2022/01/18 07:12:15;;;;;;;;;;;3.00;99.90;;;;;;5019288;28;19928;-86
2022/01/18 07:14:41;;;;;;;;;;;3.10;99.90;;;;;;5019103;28;19984;-86
2022/01/18 07:17:06;;;;;;;;;;;3.10;99.90;;;;;;5018944;28;19909;-86
2022/01/18 07:19:32;;;;;;;;;;;3.10;99.90;;;;;;5018952;28;19928;-86
2022/01/18 07:21:58;;;;;;;;;;;3.10;99.90;;;;;;5017210;28;20272;-85
2022/01/18 07:24:38;;;;;;;;;;;3.10;99.90;;;;;;5018524;28;19905;-86
2022/01/18 07:27:05;;;;;;;;;;;3.10;99.90;;;;;;5018641;28;19905;-86
2022/01/18 07:29:30;;;;;;;;;;;3.10;99.90;;;;;;5019442;28;20277;-86
2022/01/18 07:31:56;;;;;;;;;;;3.10;99.90;;;;;;5018735;28;19995;-86
2022/01/18 07:34:22;;;;;;;;;;;3.20;99.90;;;;;;5019082;28;19905;-86
2022/01/18 07:36:48;;;;;;;;;;;3.20;99.90;;;;;;5018819;28;19913;-86
2022/01/18 07:39:13;;;;;;;;;;;3.20;99.90;;;;;;5019171;28;19905;-86
2022/01/18 07:41:52;;;;;;;;;;;3.20;99.90;;;;;;5134386;27;20452;-84
2022/01/18 07:44:18;;;;;;;;;;;3.20;99.90;;;;;;5115664;28;19955;-86
2022/01/18 07:46:43;;;;;;;;;;;3.30;99.90;;;;;;5114946;28;19914;-84
2022/01/18 07:49:09;;;;;;;;;;;3.30;99.90;;;;;;5134220;28;19958;-84
2022/01/18 07:51:35;;;;;;;;;;;3.30;99.90;;;;;;5133662;28;19911;-87
2022/01/18 07:54:00;;;;;;;;;;;3.30;99.90;;;;;;5115431;28;19931;-87
2022/01/18 07:56:26;;;;;;;;;;;3.20;99.90;;;;;;5115171;28;19908;-84
2022/01/18 07:58:52;;;;;;;;;;;3.20;99.90;;;;;;5115160;28;19908;-85
2022/01/18 08:01:18;;;;;;;;;;;3.20;99.90;;;;;;5114083;28;19912;-87
2022/01/18 08:03:44;;;;;;;;;;;3.30;99.90;;;;;;5133376;28;19914;-85
2022/01/18 08:06:09;;;;;;;;;;;3.30;99.90;;;;;;5104420;28;20267;-85
2022/01/18 08:08:37;;;;;;;;;;;3.30;99.90;;;;;;5113027;28;19981;-86
2022/01/18 08:11:03;;;;;;;;;;;3.40;99.90;;;;;;5094222;28;19908;-87
2022/01/18 08:13:36;;;;;;;;;;;3.40;99.90;;;;;;5095368;28;19916;-85
2022/01/18 08:16:21;;;;;;;;;;;3.50;99.90;;;;;;5095294;28;19919;-86
2022/01/18 08:18:47;;;;;;;;;;;3.50;99.90;;;;;;5094935;28;19908;-86
2022/01/18 08:21:13;;;;;;;;;;;3.60;99.90;;;;;;5113272;28;19912;-87
2022/01/18 08:23:38;;;;;;;;;;;3.60;99.90;;;;;;5094563;28;19915;-87
2022/01/18 08:26:04;;;;;;;;;;;3.60;99.90;;;;;;5094666;28;20363;-87
2022/01/18 08:28:29;;;;;;;;;;;3.50;99.90;;;;;;5094680;28;19915;-87
2022/01/18 08:30:55;;;;;;;;;;;3.50;99.90;;;;;;5094705;28;19915;-87
2022/01/18 08:33:21;;;;;;;;;;;3.50;99.90;;;;;;5094509;28;19974;-87
2022/01/18 08:35:46;;;;;;;;;;;3.50;99.90;;;;;;5094545;28;19908;-87
2022/01/18 08:38:12;;;;;;;;;;;3.50;99.90;;;;;;5093582;28;19954;-87
2022/01/18 08:40:37;;;;;;;;;;;3.50;99.90;;;;;;5093812;28;20345;-87
2022/01/18 08:43:03;;;;;;;;;;;3.60;99.90;;;;;;5094711;28;19961;-86
2022/01/18 08:45:30;;;;;;;;;;;3.60;99.90;;;;;;5103134;28;19908;-87
2022/01/18 08:47:56;;;;;;;;;;;3.80;99.90;;;;;;5105673;28;19902;-87
2022/01/18 08:50:21;;;;;;;;;;;3.90;99.90;;;;;;5097940;28;19951;-88
2022/01/18 08:52:50;;;;;;;;;;;4.00;99.90;;;;;;5083431;28;20376;-87
2022/01/18 08:55:17;;;;;;;;;;;4.20;99.90;;;;;;5099358;28;19953;-87
2022/01/18 08:57:42;;;;;;;;;;;4.20;99.90;;;;;;5080251;28;19908;-92
2022/01/18 09:00:10;;;;;;;;;;;4.30;99.90;;;;;;5081734;28;20011;-89
2022/01/18 09:02:36;;;;;;;;;;;4.30;99.90;;;;;;5081632;28;19912;-89
2022/01/18 09:05:01;;;;;;;;;;;4.30;99.90;;;;;;5099585;28;19935;-89
2022/01/18 09:07:27;;;;;;;;;;;4.40;99.90;;;;;;5080804;28;19916;-87
2022/01/18 09:10:02;;;;;;;;;;;4.40;99.90;;;;;;5080477;28;19931;-89
2022/01/18 09:12:28;;;;;;;;;;;4.50;99.90;;;;;;5098805;28;19908;-86
2022/01/18 09:14:53;;;;;;;;;;;4.50;99.90;;;;;;5079922;28;19908;-88
2022/01/18 09:17:19;;;;;;;;;;;4.50;99.90;;;;;;5081763;28;20336;-88
2022/01/18 09:19:45;;;;;;;;;;;4.50;99.90;;;;;;5080568;28;20007;-87
2022/01/18 09:22:10;;;;;;;;;;;4.60;99.90;;;;;;5080537;28;20381;-87
2022/01/18 09:24:36;;;;;;;;;;;4.60;99.90;;;;;;5080448;28;19939;-87
2022/01/18 09:27:02;;;;;;;;;;;4.60;99.90;;;;;;5080275;28;19916;-88
2022/01/18 09:29:28;;;;;;;;;;;4.50;99.90;;;;;;5080535;28;19908;-87
2022/01/18 09:31:53;;;;;;;;;;;4.60;99.90;;;;;;5080054;28;20011;-88
2022/01/18 09:34:19;;;;;;;;;;;4.70;99.90;;;;;;5080058;28;19951;-87
2022/01/18 09:36:44;;;;;;;;;;;4.80;99.90;;;;;;5098062;28;19917;-87
2022/01/18 09:39:10;;;;;;;;;;;4.80;99.90;;;;;;5079686;28;20008;-86
2022/01/18 09:41:39;;;;;;;;;;;4.90;99.90;;;;;;5079319;28;19916;-86
2022/01/18 09:44:06;;;;;;;;;;;4.80;99.90;;;;;;5097827;28;19908;-85
2022/01/18 09:46:32;;;;;;;;;;;4.80;99.90;;;;;;5079361;28;19912;-86
2022/01/18 09:49:00;;;;;;;;;;;4.80;99.90;;;;;;5078506;28;19909;-86
2022/01/18 09:51:28;;;;;;;;;;;4.90;99.90;;;;;;5080136;28;19959;-85
2022/01/18 09:53:54;;;;;;;;;;;5.00;99.90;;;;;;5098599;28;20295;-86
2022/01/18 09:56:19;;;;;;;;;;;5.00;99.90;;;;;;5080070;28;19908;-85
2022/01/18 09:58:45;;;;;;;;;;;5.10;99.90;;;;;;5097738;28;19909;-85
2022/01/18 10:01:11;;;;;;;;;;;5.20;99.90;;;;;;5079136;28;19960;-86
2022/01/18 10:03:38;;;;;;;;;;;5.20;99.90;;;;;;5096253;28;19957;-86
2022/01/18 10:06:05;;;;;;;;;;;5.20;99.90;;;;;;5078494;28;20105;-86
2022/01/18 10:08:31;;;;;;;;;;;5.30;99.90;;;;;;5079056;28;19945;-83
2022/01/18 10:11:02;;;;;;;;;;;5.40;99.90;;;;;;5078959;28;19916;-83
2022/01/18 10:13:31;;;;;;;;;;;5.40;99.90;;;;;;5078791;28;19912;-85
2022/01/18 10:16:03;;;;;;;;;;;5.40;99.90;;;;;;5096587;28;19915;-85
2022/01/18 10:18:39;;;;;;;;;;;5.30;99.90;;;;;;5078087;28;19908;-85
2022/01/18 10:21:08;;;;;;;;;;;5.30;99.90;;;;;;5078172;28;19966;-85
2022/01/18 10:23:34;;;;;;;;;;;5.50;99.90;;;;;;5078460;28;19908;-85
2022/01/18 10:26:14;;;;;;;;;;;5.50;99.90;;;;;;5078655;28;20286;-82
2022/01/18 10:28:39;;;;;;;;;;;5.60;99.90;;;;;;5096767;28;19943;-84
2022/01/18 10:31:22;;;;;;;;;;;5.60;99.90;;;;;;5078300;28;19915;-83
2022/01/18 10:33:58;;;;;;;;;;;5.70;99.90;;;;;;5096203;28;19909;-84
2022/01/18 10:36:26;;;;;;;;;;;5.60;99.90;;;;;;5078101;28;20374;-85
2022/01/18 10:38:59;;;;;;;;;;;5.50;99.90;;;;;;5077778;28;19938;-85
2022/01/18 10:41:32;;;;;;;;;;;5.60;99.90;;;;;;5095342;28;19916;-85
2022/01/18 10:44:02;;;;;;;;;;;5.50;99.90;;;;;;5077439;28;19908;-83
2022/01/18 10:46:32;;;;;;;;;;;5.50;99.90;;;;;;5095766;28;19908;-84
2022/01/18 10:48:58;;;;;;;;;;;5.30;99.90;;;;;;5078038;28;19953;-84
2022/01/18 10:51:30;;;;;;;;;;;5.20;99.90;;;;;;5095478;28;20384;-84
2022/01/18 10:53:58;;;;;;;;;;;5.20;99.90;;;;;;5077347;28;19908;-82
2022/01/18 10:56:26;;;;;;;;;;;5.20;99.90;;;;;;5077735;28;19908;-84
2022/01/18 10:58:58;;;;;;;;;;;5.10;99.90;;;;;;5079366;28;19912;-81
2022/01/18 11:01:26;;;;;;;;;;;5.10;99.90;;;;;;5079242;28;20012;-84
2022/01/18 11:04:05;;;;;;;;;;;5.10;99.90;;;;;;5077696;28;20014;-84
2022/01/18 11:06:30;;;;;;;;;;;5.10;99.90;;;;;;5077565;28;19954;-84
2022/01/18 11:09:06;;;;;;;;;;;5.20;99.90;;;;;;5077789;28;19912;-84
2022/01/18 11:11:31;;;;;;;;;;;5.20;99.90;;;;;;5076983;28;19967;-85
2022/01/18 11:14:01;;;;;;;;;;;5.20;99.90;;;;;;5077558;28;19947;-85
2022/01/18 11:16:27;;;;;;;;;;;5.30;99.90;;;;;;5094852;28;19951;-84
2022/01/18 11:18:54;;;;;;;;;;;5.30;99.90;;;;;;5094923;28;19939;-84
2022/01/18 11:21:23;;;;;;;;;;;5.20;99.90;;;;;;5076863;28;19967;-85
2022/01/18 11:23:51;;;;;;;;;;;5.20;99.90;;;;;;5095332;28;19930;-84
2022/01/18 11:26:17;;;;;;;;;;;5.10;99.90;;;;;;5076640;28;19931;-84
2022/01/18 11:28:43;;;;;;;;;;;5.00;99.90;;;;;;5077259;28;20301;-84
2022/01/18 11:31:10;;;;;;;;;;;5.00;99.90;;;;;;5077087;28;20232;-85
2022/01/18 11:33:37;;;;;;;;;;;4.90;99.90;;;;;;5077037;28;19908;-85
2022/01/18 11:36:06;;;;;;;;;;;4.90;99.90;;;;;;5076727;28;19908;-84
2022/01/18 11:38:37;;;;;;;;;;;4.90;99.90;;;;;;5076931;28;19912;-84
2022/01/18 11:41:02;;;;;;;;;;;4.90;99.90;;;;;;5076817;28;19927;-84
2022/01/18 11:43:44;;;;;;;;;;;4.80;99.90;;;;;;5076492;28;20321;-84
2022/01/18 11:46:24;;;;;;;;;;;4.90;99.90;;;;;;5094679;28;20346;-85
2022/01/18 11:48:59;;;;;;;;;;;4.90;99.90;;;;;;5077192;28;19957;-84
2022/01/18 11:51:37;;;;;;;;;;;4.90;99.90;;;;;;5077298;28;19908;-84
2022/01/18 11:54:36;;;;;;;;;;;4.90;99.90;;;;;;5076479;28;20375;-84
2022/01/18 11:57:11;;;;;;;;;;;4.90;99.90;;;;;;5058186;28;19963;-84
2022/01/18 11:59:38;;;;;;;;;;;4.90;99.90;;;;;;5095110;28;19908;-84
2022/01/18 12:02:04;;;;;;;;;;;4.90;99.90;;;;;;5095631;28;19933;-85
2022/01/18 12:07:30;;;;;;;;;;;5.00;99.90;;;;;;5095370;28;19953;-85
2022/01/18 12:09:56;;;;;;;;;;;5.00;99.90;;;;;;5077048;28;19908;-84
2022/01/18 12:12:40;;;;;;;;;;;5.00;99.90;;;;;;5076793;28;19918;-86
2022/01/18 12:15:29;;;;;;;;;;;5.10;99.90;;;;;;5095566;28;19912;-85
2022/01/18 12:17:55;;;;;;;;;;;5.10;99.90;;;;;;5080618;28;19908;-86
2022/01/18 12:20:37;;;;;;;;;;;5.20;99.90;;;;;;5077661;28;20284;-85
2022/01/18 12:23:26;;;;;;;;;;;5.30;99.90;;;;;;5077879;28;19912;-85
2022/01/18 12:26:10;;;;;;;;;;;5.40;99.90;;;;;;5065248;28;20059;-85
2022/01/18 12:28:49;;;;;;;;;;;5.50;99.90;;;;;;5081946;28;19916;-85
2022/01/18 12:31:41;;;;;;;;;;;5.50;99.90;;;;;;5081375;28;19908;-85
2022/01/18 12:36:54;;;;;;;;;;;5.60;99.90;;;;;;5098973;28;19908;-85
2022/01/18 12:39:20;;;;;;;;;;;5.50;99.90;;;;;;5080477;28;20006;-85
2022/01/18 12:41:50;;;;;;;;;;;5.50;99.90;;;;;;5080242;28;20021;-85
2022/01/18 12:44:21;;;;;;;;;;;5.40;99.90;;;;;;5080899;28;19915;-85
2022/01/18 12:46:57;;;;;;;;;;;5.30;99.90;;;;;;5080269;28;19916;-86
2022/01/18 12:49:23;;;;;;;;;;;5.30;99.90;;;;;;5099159;28;19908;-85
2022/01/18 12:51:56;;;;;;;;;;;5.30;99.90;;;;;;5080672;28;19914;-85
2022/01/18 12:54:34;;;;;;;;;;;5.20;99.90;;;;;;5080052;28;19912;-86
2022/01/18 12:57:12;;;;;;;;;;;5.20;99.90;;;;;;5080099;28;19912;-85
2022/01/18 12:59:58;;;;;;;;;;;5.10;99.90;;;;;;5080288;28;19913;-86
2022/01/18 13:02:24;;;;;;;;;;;5.10;99.90;;;;;;5079928;28;19912;-86
2022/01/18 13:05:04;;;;;;;;;;;5.10;99.90;;;;;;5080459;28;19934;-86
2022/01/18 13:07:30;;;;;;;;;;;5.10;99.90;;;;;;5079342;28;19908;-85
2022/01/18 13:09:56;;;;;;;;;;;5.10;99.90;;;;;;5087869;28;19930;-85
2022/01/18 13:12:32;;;;;;;;;;;5.10;99.90;;;;;;5091568;28;19940;-84
2022/01/18 13:14:59;;;;;;;;;;;5.10;99.90;;;;;;5084402;28;19909;-86
2022/01/18 13:23:51;;;;;;;;;;;5.00;99.90;;;;;;5097700;28;19973;-86
2022/01/18 13:26:53;;;;;;;;;;;5.00;99.90;;;;;;5080093;28;19912;-87
2022/01/18 13:29:23;;;;;;;;;;;5.00;99.90;;;;;;5080615;28;19915;-86
2022/01/18 13:31:59;;;;;;;;;;;5.00;99.90;;;;;;5079767;28;20007;-86
2022/01/18 13:34:36;;;;;;;;;;;5.00;99.90;;;;;;5079776;28;19947;-86
2022/01/18 13:37:04;;;;;;;;;;;5.10;99.90;;;;;;5079947;28;20347;-86
2022/01/18 13:39:32;;;;;;;;;;;5.10;99.90;;;;;;5079325;28;19999;-86
2022/01/18 13:41:59;;;;;;;;;;;5.10;99.90;;;;;;5079944;28;19909;-86
2022/01/18 13:44:25;;;;;;;;;;;5.10;99.90;;;;;;5078890;28;19958;-86
2022/01/18 13:46:50;;;;;;;;;;;5.00;99.90;;;;;;5079970;28;20252;-86
2022/01/18 13:49:16;;;;;;;;;;;5.00;99.90;;;;;;5097914;28;20363;-86
2022/01/18 13:52:00;;;;;;;;;;;5.00;99.90;;;;;;5080117;28;20279;-86
2022/01/18 13:54:28;;;;;;;;;;;4.90;99.90;;;;;;5079665;28;19908;-85
2022/01/18 13:56:55;;;;;;;;;;;4.90;99.90;;;;;;5079594;28;19908;-86
2022/01/18 13:59:24;;;;;;;;;;;4.90;99.90;;;;;;5079707;28;19908;-87
2022/01/18 14:01:50;;;;;;;;;;;4.90;99.90;;;;;;5079932;28;19912;-87
2022/01/18 14:04:18;;;;;;;;;;;4.90;99.90;;;;;;5078702;28;19947;-86
2022/01/18 14:06:44;;;;;;;;;;;5.00;99.90;;;;;;5078679;28;19916;-86
2022/01/18 14:09:10;;;;;;;;;;;5.10;99.90;;;;;;5079382;28;19909;-86
2022/01/18 14:11:37;;;;;;;;;;;5.10;99.90;;;;;;5079282;28;19912;-85
2022/01/18 14:14:15;;;;;;;;;;;5.00;99.90;;;;;;5096956;28;19919;-86
2022/01/18 14:16:45;;;;;;;;;;;5.10;99.90;;;;;;5078653;28;19999;-87
2022/01/18 14:19:10;;;;;;;;;;;5.00;99.90;;;;;;5079027;28;20457;-86
2022/01/18 14:21:38;;;;;;;;;;;5.00;99.90;;;;;;5079651;28;19947;-86
2022/01/18 14:24:07;;;;;;;;;;;4.90;99.90;;;;;;5079670;28;19908;-86
2022/01/18 14:26:35;;;;;;;;;;;4.90;99.90;;;;;;5097154;28;19909;-86
2022/01/18 14:29:01;;;;;;;;;;;4.90;99.90;;;;;;5078784;28;19915;-87
2022/01/18 14:31:27;;;;;;;;;;;4.80;99.90;;;;;;5097349;28;20330;-86
2022/01/18 14:33:52;;;;;;;;;;;4.80;99.90;;;;;;5079055;28;19908;-86
2022/01/18 14:36:18;;;;;;;;;;;4.70;99.90;;;;;;5097617;28;20382;-86
2022/01/18 14:38:43;;;;;;;;;;;4.70;99.90;;;;;;5079169;28;20307;-86
2022/01/18 14:41:19;;;;;;;;;;;4.70;99.90;;;;;;5097315;28;19920;-87
2022/01/18 14:43:45;;;;;;;;;;;4.70;99.90;;;;;;5097176;28;19908;-87
2022/01/18 14:46:36;;;;;;;;;;;4.70;99.90;;;;;;5078360;28;19915;-87
2022/01/18 14:49:02;;;;;;;;;;;4.70;99.90;;;;;;5078562;28;19912;-87
2022/01/18 14:51:29;;;;;;;;;;;4.60;99.90;;;;;;5077911;28;20352;-87
2022/01/18 14:53:54;;;;;;;;;;;4.60;99.90;;;;;;5078814;28;19942;-86
2022/01/18 14:56:20;;;;;;;;;;;4.60;99.90;;;;;;5078360;28;19908;-87
2022/01/18 14:58:45;;;;;;;;;;;4.60;99.90;;;;;;5078608;28;20316;-87
2022/01/18 15:01:11;;;;;;;;;;;4.60;99.90;;;;;;5078003;28;20032;-87
2022/01/18 15:03:37;;;;;;;;;;;4.50;99.90;;;;;;5078702;28;19915;-87
2022/01/18 15:06:02;;;;;;;;;;;4.50;99.90;;;;;;5078110;28;20381;-87
2022/01/18 15:08:28;;;;;;;;;;;4.50;99.90;;;;;;5078360;28;19908;-87
2022/01/18 15:10:53;;;;;;;;;;;4.50;99.90;;;;;;5078747;28;20378;-86
2022/01/18 15:13:19;;;;;;;;;;;4.40;99.90;;;;;;5096558;28;19908;-87
2022/01/18 15:15:44;;;;;;;;;;;4.40;99.90;;;;;;5079099;28;19912;-87
2022/01/18 15:18:11;;;;;;;;;;;4.50;99.90;;;;;;5078003;28;20368;-87
2022/01/18 15:20:38;;;;;;;;;;;4.40;99.90;;;;;;5078306;28;20015;-87
2022/01/18 15:23:04;;;;;;;;;;;4.30;99.90;;;;;;5091583;28;19998;-85
2022/01/18 15:25:30;;;;;;;;;;;4.30;99.90;;;;;;5095506;28;19896;-85
2022/01/18 15:27:55;;;;;;;;;;;4.20;99.90;;;;;;5082682;28;20042;-86
2022/01/18 15:30:23;;;;;;;;;;;4.20;99.90;;;;;;5079327;28;19908;-86
2022/01/18 15:32:48;;;;;;;;;;;4.10;99.90;;;;;;5078924;28;19916;-86
2022/01/18 15:35:14;;;;;;;;;;;4.20;99.90;;;;;;5095855;28;19912;-86
2022/01/18 15:37:42;;;;;;;;;;;4.20;99.90;;;;;;5078435;28;20438;-86
2022/01/18 15:40:09;;;;;;;;;;;4.10;99.90;;;;;;5077166;28;19920;-87
2022/01/18 15:42:35;;;;;;;;;;;4.10;99.90;;;;;;5078344;28;19973;-87
2022/01/18 15:45:02;;;;;;;;;;;4.00;99.90;;;;;;5096117;28;19908;-86
2022/01/18 15:47:27;;;;;;;;;;;4.00;99.90;;;;;;5078649;28;19908;-86
2022/01/18 15:49:53;;;;;;;;;;;3.90;99.90;;;;;;5078290;28;19976;-87
2022/01/18 15:52:19;;;;;;;;;;;3.80;99.90;;;;;;5096055;28;19915;-87
2022/01/18 15:54:44;;;;;;;;;;;3.80;99.90;;;;;;5077990;28;19915;-87
2022/01/18 15:57:10;;;;;;;;;;;3.70;99.90;;;;;;5095778;28;19908;-87
2022/01/18 15:59:37;;;;;;;;;;;3.70;99.90;;;;;;5078341;28;20278;-86
2022/01/18 16:02:02;;;;;;;;;;;3.60;99.90;;;;;;5079290;28;19911;-87